Buoy 13516

sailwx.info

Track history (hours):
 
Tides and Currents Weather Stations Pressure Air Temp Water Temp Dewpoint Dewpoint Depression Visibility Wind Speed Wind Dir Waves Ship Positions

Ao Chao Yang 13516

Last reported at 2015-Mar-28 09:43 UTC. Time now 2015-Mar-28 11:06 UTC.
Position N 26°19' W 042°12'.

Length 20 m.

Type: Fishing. MMSI: 412469022.

Water temperature 22.1 ° C

Date/timePositionNaut miles runAvg speedWind from/ knotsBaromVisibWave heightAir tempDewpointWater temp
2015-Mar-28 09:43N 26°19' W 042°12'0 3.7 22.1
2015-Mar-28 09:37N 26°18' W 042°12'0 0.0 22.1
2015-Mar-28 09:28N 26°18' W 042°12'0 4.3 22.1
2015-Mar-28 09:25N 26°18' W 042°12'0 0.3 22.1
2015-Mar-28 08:09N 26°18' W 042°12'0 2.2 22.1
2015-Mar-28 08:00N 26°18' W 042°13'0 0.9 22.1
2015-Mar-28 07:43N 26°19' W 042°12'0 0.2 22.1
2015-Mar-28 06:31N 26°18' W 042°12'0 3.3 22.2
2015-Mar-28 06:22N 26°18' W 042°13'0 0.0 22.2
2015-Mar-28 06:06N 26°18' W 042°13'0 0.0 22.2
2015-Mar-28 04:46N 26°18' W 042°13'1 9.6 22.2
2015-Mar-28 04:42N 26°18' W 042°13'0 0.0 22.2
2015-Mar-28 01:51N 26°18' W 042°13'1 0.7 22.2
2015-Mar-28 01:04N 26°17' W 042°13'0 0.0 22.2
2015-Mar-28 00:13N 26°17' W 042°13'0 0.6 22.2
2015-Mar-27 23:28N 26°17' W 042°13'1 0.8 22.2
2015-Mar-27 22:33N 26°18' W 042°14'1 8.5 22.2
2015-Mar-27 22:28N 26°17' W 042°13'0 0.0 22.2
2015-Mar-27 21:22N 26°17' W 042°13'1 2.1 22.2
2015-Mar-27 20:54N 26°17' W 042°14'0 0.0 22.3
2015-Mar-27 19:45N 26°17' W 042°14'0 0.6 22.3
2015-Mar-27 19:16N 26°17' W 042°14'0 0.3 22.3
2015-Mar-27 18:01N 26°17' W 042°14'0 0.0 22.3
2015-Mar-27 18:00N 26°17' W 042°14'1 1.5 22.3
2015-Mar-27 17:36N 26°17' W 042°14'1 0.8 22.3
2015-Mar-27 16:22N 26°17' W 042°13'0 0.0 22.2
2015-Mar-27 13:51N 26°17' W 042°13'1 0.6 22.2
2015-Mar-27 12:54N 26°16' W 042°13'1 0.7 22.2
2015-Mar-27 12:06N 26°17' W 042°13'128.2 22.2
2015-Mar-27 12:04N 26°16' W 042°13'0 0.0 22.2
2015-Mar-27 11:18N 26°16' W 042°13'110.0 22.1
2015-Mar-27 11:10N 26°17' W 042°13'0 0.0 22.1
2015-Mar-27 10:21N 26°17' W 042°13'0 0.0 22.2
2015-Mar-27 10:03N 26°17' W 042°13'0 0.0 22.2
2015-Mar-27 09:39N 26°17' W 042°13'1 1.0 22.2
2015-Mar-27 08:46N 26°17' W 042°14'1 1.5 22.2
2015-Mar-27 07:54N 26°18' W 042°13'0 0.0 22.2
2015-Mar-27 07:51N 26°18' W 042°13'0 0.0 22.2
2015-Mar-27 07:06N 26°18' W 042°13'0 0.7 22.2
2015-Mar-27 06:42N 26°18' W 042°13'1 1.6 22.2
2015-Mar-27 06:18N 26°17' W 042°13'1 0.4 22.2
2015-Mar-27 04:54N 26°18' W 042°13'0 8.3 22.2
2015-Mar-27 04:51N 26°18' W 042°12'0 0.1 22.3
2015-Mar-27 00:34N 26°17' W 042°13'1 0.3 22.3
2015-Mar-26 22:54N 26°17' W 042°13'0 4.2 22.3
2015-Mar-26 22:51N 26°18' W 042°13'0 0.3 22.3
2015-Mar-26 21:09N 26°18' W 042°14'0 0.0 22.5
2015-Mar-26 21:07N 26°18' W 042°14'0 0.0 22.5
2015-Mar-26 19:54N 26°18' W 042°14'0 0.0 22.4
2015-Mar-26 19:52N 26°18' W 042°14'119.5 22.4
2015-Mar-26 19:49N 26°18' W 042°12'2 0.4 22.4
2015-Mar-26 14:07N 26°16' W 042°14'1 0.1 22.3
2015-Mar-26 08:06N 26°15' W 042°13'0 1.1 21.9
2015-Mar-26 08:00N 26°15' W 042°13'0 0.3
2015-Mar-26 07:09N 26°15' W 042°14'1 0.7 21.9
2015-Mar-26 05:09N 26°14' W 042°14'0 0.0 21.9
2015-Mar-26 01:45N 26°14' W 042°14'1 0.4 21.9
2015-Mar-26 00:09N 26°13' W 042°14'0 0.0 22.0
2015-Mar-26 00:04N 26°13' W 042°14'0 0.0 22.0
2015-Mar-26 00:01N 26°13' W 042°14'4 4.3 22.0
2015-Mar-25 23:09N 26°11' W 042°18'4 1.7 22.0
2015-Mar-25 20:33N 26°14' W 042°14'0 0.0 22.1
2015-Mar-25 20:19N 26°14' W 042°14'1 1.5 22.1
2015-Mar-25 19:45N 26°13' W 042°14'0 0.1 22.2
2015-Mar-25 18:52N 26°13' W 042°14'1 1.6 22.1
2015-Mar-25 18:22N 26°14' W 042°14'118.9 22.1
2015-Mar-25 18:19N 26°14' W 042°15'0 0.0 22.1
2015-Mar-25 18:03N 26°14' W 042°15'116.3 22.1
2015-Mar-25 18:00N 26°13' W 042°16'0 0.0 22.1
2015-Mar-25 16:45N 26°13' W 042°16'0 0.0 22.1
2015-Mar-25 16:40N 26°13' W 042°16'0 0.0 22.1
2015-Mar-25 15:03N 26°13' W 042°16'2 0.8 22.0
2015-Mar-25 12:49N 26°12' W 042°16'0 0.5 22.0
2015-Mar-25 11:54N 26°11' W 042°16'0 3.6 21.9
2015-Mar-25 11:52N 26°11' W 042°16'1 1.1 21.9
2015-Mar-25 11:07N 26°10' W 042°16'0 0.0 21.9
2015-Mar-25 09:48N 26°10' W 042°16'0 0.9 21.9
2015-Mar-25 09:16N 26°10' W 042°16'1 6.8 21.9
2015-Mar-25 09:09N 26°10' W 042°16'0 0.1 21.9
2015-Mar-25 08:18N 26°10' W 042°16'111.6 21.9
2015-Mar-25 08:15N 26°09' W 042°16'0 0.0 21.9
2015-Mar-25 07:58N 26°09' W 042°16'0 0.0 21.9
2015-Mar-25 07:37N 26°09' W 042°16'111.9 21.9
2015-Mar-25 07:34N 26°09' W 042°17'1 2.1 21.9
2015-Mar-25 07:01N 26°08' W 042°17'1 3.5 21.9
2015-Mar-25 06:39N 26°08' W 042°15'0 0.0
2015-Mar-25 06:34N 26°08' W 042°15'0 0.0 22.0
2015-Mar-25 05:21N 26°08' W 042°15'1 0.6 22.0
2015-Mar-25 03:40N 26°07' W 042°15'0 0.0 22.0
2015-Mar-25 01:16N 26°07' W 042°15'0 5.9 22.0
2015-Mar-25 01:12N 26°07' W 042°16'1 0.8 22.0
2015-Mar-25 00:30N 26°07' W 042°16'1 0.2 22.0
2015-Mar-24 20:54N 26°06' W 042°15'1 0.9 22.2
2015-Mar-24 19:54N 26°05' W 042°15'127.3
2015-Mar-24 19:52N 26°05' W 042°16'1 0.3 22.2
2015-Mar-24 18:09N 26°04' W 042°15'0 3.2 22.3
2015-Mar-24 18:04N 26°05' W 042°15'0 0.0 22.2
2015-Mar-24 16:54N 26°05' W 042°15'1 0.5 22.2
2015-Mar-24 15:13N 26°04' W 042°16'0 0.0 22.2
2015-Mar-24 14:01N 26°04' W 042°16'0 0.3 22.0
2015-Mar-24 13:07N 26°04' W 042°16'1 0.5
2015-Mar-24 11:34N 26°04' W 042°17'119.9 22.0
2015-Mar-24 11:30N 26°02' W 042°17'0 0.1 22.0
2015-Mar-24 08:40N 26°02' W 042°17'0 0.3 21.9
2015-Mar-24 08:00N 26°02' W 042°17'0 0.4 21.9
2015-Mar-24 07:13N 26°02' W 042°17'0 0.4 21.9
2015-Mar-24 07:00N 26°02' W 042°17'1 4.5 21.9
2015-Mar-24 06:52N 26°02' W 042°16'1 0.5 21.9
2015-Mar-24 03:54N 26°01' W 042°16'0 0.2 22.0
2015-Mar-24 01:37N 26°00' W 042°16'0 0.5 22.0
2015-Mar-24 00:51N 25°60' W 042°16'0 0.5 22.0
2015-Mar-23 23:54N 25°59' W 042°16'1 0.7 22.0
2015-Mar-23 23:09N 25°59' W 042°17'0 5.8 22.0
2015-Mar-23 23:04N 25°60' W 042°17'233.1
2015-Mar-23 23:01N 25°58' W 042°16'1 0.4
2015-Mar-23 20:07N 25°58' W 042°15'0 0.2 22.0
2015-Mar-23 19:51N 25°58' W 042°15'0 2.4 22.0
2015-Mar-23 19:43N 25°58' W 042°15'0 0.3 22.0
2015-Mar-23 18:00N 25°58' W 042°15'0 0.3 22.0
2015-Mar-23 17:07N 25°58' W 042°14'2 0.4 22.0
2015-Mar-23 13:36N 25°57' W 042°15'0 0.0 21.9
2015-Mar-23 12:45N 25°57' W 042°15'1 0.8 21.8
2015-Mar-23 11:54N 25°56' W 042°15'0 6.5 21.8
2015-Mar-23 11:51N 25°56' W 042°15'1 1.0 21.8
2015-Mar-23 11:00N 25°57' W 042°15'0 0.0 21.8
2015-Mar-23 10:07N 25°57' W 042°15'2 1.7 21.7
2015-Mar-23 09:09N 25°55' W 042°15'0 0.7 21.7
2015-Mar-23 08:48N 25°55' W 042°14'0 0.0 21.7
2015-Mar-23 07:06N 25°55' W 042°14'0 2.3 21.8
2015-Mar-23 07:01N 25°55' W 042°14'1 2.7 21.8
2015-Mar-23 06:45N 25°54' W 042°14'0 0.0 21.8
2015-Mar-23 05:43N 25°54' W 042°14'222.7 21.8
2015-Mar-23 05:37N 25°53' W 042°12'3 1.6 21.8
2015-Mar-23 03:57N 25°52' W 042°15'0 0.0 21.8
2015-Mar-23 01:52N 25°52' W 042°15'1 0.7 21.9
2015-Mar-23 01:07N 25°52' W 042°14'1 0.2 21.9
2015-Mar-22 22:37N 25°51' W 042°14'233.8 21.8
2015-Mar-22 22:34N 25°50' W 042°13'0 0.2 21.8
2015-Mar-22 20:13N 25°50' W 042°12'1 0.2 21.9
2015-Mar-22 13:54N 25°50' W 042°11'1 0.4 21.8
2015-Mar-22 12:15N 25°50' W 042°12'1 4.5 21.8
2015-Mar-22 12:07N 25°50' W 042°12'1 0.7 21.8
2015-Mar-22 11:16N 25°49' W 042°12'1 0.2 21.8
2015-Mar-22 07:13N 25°49' W 042°12'1 5.3 21.8
2015-Mar-22 07:07N 25°48' W 042°12'0 0.1 21.8
2015-Mar-22 04:13N 25°48' W 042°12'3 0.5 21.8
2015-Mar-21 22:52N 25°46' W 042°11'0 0.0 21.8
2015-Mar-21 20:51N 25°46' W 042°11'2 0.1 21.8
2015-Mar-21 09:06N 25°44' W 042°10'1 5.3 21.8
2015-Mar-21 09:00N 25°44' W 042°10'1 2.3 21.8
2015-Mar-21 08:36N 25°44' W 042°10'0 0.3 21.8
2015-Mar-21 06:54N 25°44' W 042°10'0 0.2 21.8
2015-Mar-21 06:07N 25°44' W 042°10'120.4 21.8
2015-Mar-21 06:04N 25°43' W 042°10'0 0.1 21.8
2015-Mar-21 01:45N 25°43' W 042°10'0 0.0 21.8
2015-Mar-21 01:00N 25°43' W 042°10'2 1.8 21.9
2015-Mar-21 00:09N 25°41' W 042°11'1 1.0 21.9
2015-Mar-20 23:15N 25°41' W 042°11'0 0.0 21.9
2015-Mar-20 23:10N 25°41' W 042°11'1 0.3
2015-Mar-20 19:45N 25°40' W 042°11'0 0.0 22.0
2015-Mar-20 19:01N 25°40' W 042°11'0 1.2 21.9
2015-Mar-20 18:58N 25°40' W 042°11'2 0.6 21.9
2015-Mar-20 16:00N 25°39' W 042°10'1 6.2 22.0
2015-Mar-20 15:54N 25°39' W 042°10'1 0.4 21.9
2015-Mar-20 12:51N 25°39' W 042°09'0 0.0 21.8
2015-Mar-20 12:03N 25°39' W 042°09'0 1.6 21.7
2015-Mar-20 12:00N 25°39' W 042°09'0 3.6 21.7
2015-Mar-20 11:54N 25°39' W 042°09'0 0.1
2015-Mar-20 09:18N 25°39' W 042°09'0 4.8 21.7
2015-Mar-20 09:12N 25°38' W 042°09'0 0.0 21.7
2015-Mar-20 07:57N 25°38' W 042°09'0 0.2 21.7
2015-Mar-20 06:19N 25°38' W 042°08'1 9.3 21.7
2015-Mar-20 06:15N 25°38' W 042°08'3 0.4 21.7
2015-Mar-19 20:51N 25°35' W 042°09'0 0.0 22.0
2015-Mar-19 20:15N 25°35' W 042°09'1 6.9 22.0
2015-Mar-19 20:09N 25°35' W 042°09'2 0.9 22.0
2015-Mar-19 17:51N 25°34' W 042°07'1 0.5 22.0
2015-Mar-19 16:09N 25°33' W 042°07'1 7.7 22.0
2015-Mar-19 16:00N 25°32' W 042°06'0 0.0 22.0
2015-Mar-19 14:04N 25°32' W 042°06'1 0.4 21.9
2015-Mar-19 12:16N 25°32' W 042°05'1 0.4 21.8
2015-Mar-19 10:06N 25°32' W 042°04'0 1.3 21.8
2015-Mar-19 10:01N 25°32' W 042°04'0 0.2 21.8
2015-Mar-19 07:48N 25°32' W 042°04'111.4 21.8
2015-Mar-19 07:42N 25°32' W 042°02'0 0.0 21.8
2015-Mar-19 06:46N 25°32' W 042°02'0 1.1 21.8
2015-Mar-19 06:31N 25°32' W 042°02'0 2.4 21.8
2015-Mar-19 06:22N 25°32' W 042°02'0 0.0 21.8
2015-Mar-19 06:09N 25°32' W 042°02'0 0.0 21.8
2015-Mar-19 04:48N 25°32' W 042°02'1 4.3 21.8
2015-Mar-19 04:39N 25°32' W 042°01'0 0.0
2015-Mar-19 01:40N 25°32' W 042°01'0 0.0 21.8
2015-Mar-19 01:36N 25°32' W 042°01'0 0.1 21.8
2015-Mar-19 00:54N 25°32' W 042°01'1 1.0 21.8
2015-Mar-19 00:01N 25°31' W 042°01'0 0.0 21.8
2015-Mar-18 23:54N 25°31' W 042°01'0 0.0 21.8
2015-Mar-18 23:15N 25°31' W 042°01'0 1.9 21.8
2015-Mar-18 23:03N 25°31' W 042°01'0 0.0
2015-Mar-18 22:19N 25°31' W 042°01'0 0.0 21.8
2015-Mar-18 22:16N 25°31' W 042°01'0 0.0 21.8
2015-Mar-18 22:13N 25°31' W 042°01'2 3.1 21.8
2015-Mar-18 21:43N 25°31' W 041°59'0 0.0 21.8
2015-Mar-18 21:01N 25°31' W 041°59'0 0.0 21.8
2015-Mar-18 20:58N 25°31' W 041°59'2 7.7 21.8
2015-Mar-18 20:46N 25°31' W 042°01'210.2 21.8
2015-Mar-18 20:37N 25°31' W 041°59'1 1.6 21.9
2015-Mar-18 20:07N 25°30' W 041°59'0 0.0 21.9
2015-Mar-18 19:24N 25°30' W 041°59'0 0.0 21.9
2015-Mar-18 19:19N 25°30' W 041°59'0 0.5 21.9
2015-Mar-18 18:25N 25°30' W 041°59'0 0.0 21.9
2015-Mar-18 18:01N 25°30' W 041°59'0 0.0 21.9
2015-Mar-18 17:40N 25°30' W 041°59'0 0.1 21.9
2015-Mar-18 16:22N 25°30' W 041°59'1 0.8 21.9
2015-Mar-18 14:39N 25°30' W 041°57'0 0.9 21.8
2015-Mar-18 14:24N 25°30' W 041°57'0 0.1 21.8
2015-Mar-18 13:37N 25°30' W 041°57'0 3.6 21.8
2015-Mar-18 13:30N 25°30' W 041°57'1 0.8 21.8
2015-Mar-18 12:45N 25°30' W 041°56'0 4.5 21.8
2015-Mar-18 12:40N 25°30' W 041°56'0 0.0 21.8
2015-Mar-18 12:36N 25°30' W 041°56'0 0.5 21.8
2015-Mar-18 11:54N 25°30' W 041°56'0 0.0 21.8
2015-Mar-18 11:51N 25°30' W 041°56'0 0.0 21.8
2015-Mar-18 11:04N 25°30' W 041°56'0 3.2 21.8
2015-Mar-18 11:01N 25°29' W 041°56'117.1 21.8
2015-Mar-18 10:58N 25°30' W 041°55'1 1.0 21.8
2015-Mar-18 10:28N 25°30' W 041°55'1 1.4 21.7
2015-Mar-18 10:07N 25°30' W 041°55'   21.7
Track history (hours):
 
Tides and Currents Weather Stations Pressure Air Temp Water Temp Dewpoint Dewpoint Depression Visibility Wind Speed Wind Dir Waves Ship Positions

Ao Chao Yang 13516

Last reported at 2015-Mar-28 09:43 UTC. Time now 2015-Mar-28 11:06 UTC.
Position N 26°19' W 042°12'.

Length 20 m.

Type: Fishing. MMSI: 412469022.

Water temperature 22.1 ° C

Date/timePositionNaut miles runAvg speedWind from/ knotsBaromVisibWave heightAir tempDewpointWater temp
2015-Mar-28 09:43N 26°19' W 042°12'0 3.7 22.1
2015-Mar-28 09:37N 26°18' W 042°12'0 0.0 22.1
2015-Mar-28 09:28N 26°18' W 042°12'0 4.3 22.1
2015-Mar-28 09:25N 26°18' W 042°12'0 0.3 22.1
2015-Mar-28 08:09N 26°18' W 042°12'0 2.2 22.1
2015-Mar-28 08:00N 26°18' W 042°13'0 0.9 22.1
2015-Mar-28 07:43N 26°19' W 042°12'0 0.2 22.1
2015-Mar-28 06:31N 26°18' W 042°12'0 3.3 22.2
2015-Mar-28 06:22N 26°18' W 042°13'0 0.0 22.2
2015-Mar-28 06:06N 26°18' W 042°13'0 0.0 22.2
2015-Mar-28 04:46N 26°18' W 042°13'1 9.6 22.2
2015-Mar-28 04:42N 26°18' W 042°13'0 0.0 22.2
2015-Mar-28 01:51N 26°18' W 042°13'1 0.7 22.2
2015-Mar-28 01:04N 26°17' W 042°13'0 0.0 22.2
2015-Mar-28 00:13N 26°17' W 042°13'0 0.6 22.2
2015-Mar-27 23:28N 26°17' W 042°13'1 0.8 22.2
2015-Mar-27 22:33N 26°18' W 042°14'1 8.5 22.2
2015-Mar-27 22:28N 26°17' W 042°13'0 0.0 22.2
2015-Mar-27 21:22N 26°17' W 042°13'1 2.1 22.2
2015-Mar-27 20:54N 26°17' W 042°14'0 0.0 22.3
2015-Mar-27 19:45N 26°17' W 042°14'0 0.6 22.3
2015-Mar-27 19:16N 26°17' W 042°14'0 0.3 22.3
2015-Mar-27 18:01N 26°17' W 042°14'0 0.0 22.3
2015-Mar-27 18:00N 26°17' W 042°14'1 1.5 22.3
2015-Mar-27 17:36N 26°17' W 042°14'1 0.8 22.3
2015-Mar-27 16:22N 26°17' W 042°13'0 0.0 22.2
2015-Mar-27 13:51N 26°17' W 042°13'1 0.6 22.2
2015-Mar-27 12:54N 26°16' W 042°13'1 0.7 22.2
2015-Mar-27 12:06N 26°17' W 042°13'128.2 22.2
2015-Mar-27 12:04N 26°16' W 042°13'0 0.0 22.2
2015-Mar-27 11:18N 26°16' W 042°13'110.0 22.1
2015-Mar-27 11:10N 26°17' W 042°13'0 0.0 22.1
2015-Mar-27 10:21N 26°17' W 042°13'0 0.0 22.2
2015-Mar-27 10:03N 26°17' W 042°13'0 0.0 22.2
2015-Mar-27 09:39N 26°17' W 042°13'1 1.0 22.2
2015-Mar-27 08:46N 26°17' W 042°14'1 1.5 22.2
2015-Mar-27 07:54N 26°18' W 042°13'0 0.0 22.2
2015-Mar-27 07:51N 26°18' W 042°13'0 0.0 22.2
2015-Mar-27 07:06N 26°18' W 042°13'0 0.7 22.2
2015-Mar-27 06:42N 26°18' W 042°13'1 1.6 22.2
2015-Mar-27 06:18N 26°17' W 042°13'1 0.4 22.2
2015-Mar-27 04:54N 26°18' W 042°13'0 8.3 22.2
2015-Mar-27 04:51N 26°18' W 042°12'0 0.1 22.3
2015-Mar-27 00:34N 26°17' W 042°13'1 0.3 22.3
2015-Mar-26 22:54N 26°17' W 042°13'0 4.2 22.3
2015-Mar-26 22:51N 26°18' W 042°13'0 0.3 22.3
2015-Mar-26 21:09N 26°18' W 042°14'0 0.0 22.5
2015-Mar-26 21:07N 26°18' W 042°14'0 0.0 22.5
2015-Mar-26 19:54N 26°18' W 042°14'0 0.0 22.4
2015-Mar-26 19:52N 26°18' W 042°14'119.5 22.4
2015-Mar-26 19:49N 26°18' W 042°12'2 0.4 22.4
2015-Mar-26 14:07N 26°16' W 042°14'1 0.1 22.3
2015-Mar-26 08:06N 26°15' W 042°13'0 1.1 21.9
2015-Mar-26 08:00N 26°15' W 042°13'0 0.3
2015-Mar-26 07:09N 26°15' W 042°14'1 0.7 21.9
2015-Mar-26 05:09N 26°14' W 042°14'0 0.0 21.9
2015-Mar-26 01:45N 26°14' W 042°14'1 0.4 21.9
2015-Mar-26 00:09N 26°13' W 042°14'0 0.0 22.0
2015-Mar-26 00:04N 26°13' W 042°14'0 0.0 22.0
2015-Mar-26 00:01N 26°13' W 042°14'4 4.3 22.0
2015-Mar-25 23:09N 26°11' W 042°18'4 1.7 22.0
2015-Mar-25 20:33N 26°14' W 042°14'0 0.0 22.1
2015-Mar-25 20:19N 26°14' W 042°14'1 1.5 22.1
2015-Mar-25 19:45N 26°13' W 042°14'0 0.1 22.2
2015-Mar-25 18:52N 26°13' W 042°14'1 1.6 22.1
2015-Mar-25 18:22N 26°14' W 042°14'118.9 22.1
2015-Mar-25 18:19N 26°14' W 042°15'0 0.0 22.1
2015-Mar-25 18:03N 26°14' W 042°15'116.3 22.1
2015-Mar-25 18:00N 26°13' W 042°16'0 0.0 22.1
2015-Mar-25 16:45N 26°13' W 042°16'0 0.0 22.1
2015-Mar-25 16:40N 26°13' W 042°16'0 0.0 22.1
2015-Mar-25 15:03N 26°13' W 042°16'2 0.8 22.0
2015-Mar-25 12:49N 26°12' W 042°16'0 0.5 22.0
2015-Mar-25 11:54N 26°11' W 042°16'0 3.6 21.9
2015-Mar-25 11:52N 26°11' W 042°16'1 1.1 21.9
2015-Mar-25 11:07N 26°10' W 042°16'0 0.0 21.9
2015-Mar-25 09:48N 26°10' W 042°16'0 0.9 21.9
2015-Mar-25 09:16N 26°10' W 042°16'1 6.8 21.9
2015-Mar-25 09:09N 26°10' W 042°16'0 0.1 21.9
2015-Mar-25 08:18N 26°10' W 042°16'111.6 21.9
2015-Mar-25 08:15N 26°09' W 042°16'0 0.0 21.9
2015-Mar-25 07:58N 26°09' W 042°16'0 0.0 21.9
2015-Mar-25 07:37N 26°09' W 042°16'111.9 21.9
2015-Mar-25 07:34N 26°09' W 042°17'1 2.1 21.9
2015-Mar-25 07:01N 26°08' W 042°17'1 3.5 21.9
2015-Mar-25 06:39N 26°08' W 042°15'0 0.0
2015-Mar-25 06:34N 26°08' W 042°15'0 0.0 22.0
2015-Mar-25 05:21N 26°08' W 042°15'1 0.6 22.0
2015-Mar-25 03:40N 26°07' W 042°15'0 0.0 22.0
2015-Mar-25 01:16N 26°07' W 042°15'0 5.9 22.0
2015-Mar-25 01:12N 26°07' W 042°16'1 0.8 22.0
2015-Mar-25 00:30N 26°07' W 042°16'1 0.2 22.0
2015-Mar-24 20:54N 26°06' W 042°15'1 0.9 22.2
2015-Mar-24 19:54N 26°05' W 042°15'127.3
2015-Mar-24 19:52N 26°05' W 042°16'1 0.3 22.2
2015-Mar-24 18:09N 26°04' W 042°15'0 3.2 22.3
2015-Mar-24 18:04N 26°05' W 042°15'0 0.0 22.2
2015-Mar-24 16:54N 26°05' W 042°15'1 0.5 22.2
2015-Mar-24 15:13N 26°04' W 042°16'0 0.0 22.2
2015-Mar-24 14:01N 26°04' W 042°16'0 0.3 22.0
2015-Mar-24 13:07N 26°04' W 042°16'1 0.5
2015-Mar-24 11:34N 26°04' W 042°17'119.9 22.0
2015-Mar-24 11:30N 26°02' W 042°17'0 0.1 22.0
2015-Mar-24 08:40N 26°02' W 042°17'0 0.3 21.9
2015-Mar-24 08:00N 26°02' W 042°17'0 0.4 21.9
2015-Mar-24 07:13N 26°02' W 042°17'0 0.4 21.9
2015-Mar-24 07:00N 26°02' W 042°17'1 4.5 21.9
2015-Mar-24 06:52N 26°02' W 042°16'1 0.5 21.9
2015-Mar-24 03:54N 26°01' W 042°16'0 0.2 22.0
2015-Mar-24 01:37N 26°00' W 042°16'0 0.5 22.0
2015-Mar-24 00:51N 25°60' W 042°16'0 0.5 22.0
2015-Mar-23 23:54N 25°59' W 042°16'1 0.7 22.0
2015-Mar-23 23:09N 25°59' W 042°17'0 5.8 22.0
2015-Mar-23 23:04N 25°60' W 042°17'233.1
2015-Mar-23 23:01N 25°58' W 042°16'1 0.4
2015-Mar-23 20:07N 25°58' W 042°15'0 0.2 22.0
2015-Mar-23 19:51N 25°58' W 042°15'0 2.4 22.0
2015-Mar-23 19:43N 25°58' W 042°15'0 0.3 22.0
2015-Mar-23 18:00N 25°58' W 042°15'0 0.3 22.0
2015-Mar-23 17:07N 25°58' W 042°14'2 0.4 22.0
2015-Mar-23 13:36N 25°57' W 042°15'0 0.0 21.9
2015-Mar-23 12:45N 25°57' W 042°15'1 0.8 21.8
2015-Mar-23 11:54N 25°56' W 042°15'0 6.5 21.8
2015-Mar-23 11:51N 25°56' W 042°15'1 1.0 21.8
2015-Mar-23 11:00N 25°57' W 042°15'0 0.0 21.8
2015-Mar-23 10:07N 25°57' W 042°15'2 1.7 21.7
2015-Mar-23 09:09N 25°55' W 042°15'0 0.7 21.7
2015-Mar-23 08:48N 25°55' W 042°14'0 0.0 21.7
2015-Mar-23 07:06N 25°55' W 042°14'0 2.3 21.8
2015-Mar-23 07:01N 25°55' W 042°14'1 2.7 21.8
2015-Mar-23 06:45N 25°54' W 042°14'0 0.0 21.8
2015-Mar-23 05:43N 25°54' W 042°14'222.7 21.8
2015-Mar-23 05:37N 25°53' W 042°12'3 1.6 21.8
2015-Mar-23 03:57N 25°52' W 042°15'0 0.0 21.8
2015-Mar-23 01:52N 25°52' W 042°15'1 0.7 21.9
2015-Mar-23 01:07N 25°52' W 042°14'1 0.2 21.9
2015-Mar-22 22:37N 25°51' W 042°14'233.8 21.8
2015-Mar-22 22:34N 25°50' W 042°13'0 0.2 21.8
2015-Mar-22 20:13N 25°50' W 042°12'1 0.2 21.9
2015-Mar-22 13:54N 25°50' W 042°11'1 0.4 21.8
2015-Mar-22 12:15N 25°50' W 042°12'1 4.5 21.8
2015-Mar-22 12:07N 25°50' W 042°12'1 0.7 21.8
2015-Mar-22 11:16N 25°49' W 042°12'1 0.2 21.8
2015-Mar-22 07:13N 25°49' W 042°12'1 5.3 21.8
2015-Mar-22 07:07N 25°48' W 042°12'0 0.1 21.8
2015-Mar-22 04:13N 25°48' W 042°12'3 0.5 21.8
2015-Mar-21 22:52N 25°46' W 042°11'0 0.0 21.8
2015-Mar-21 20:51N 25°46' W 042°11'2 0.1 21.8
2015-Mar-21 09:06N 25°44' W 042°10'1 5.3 21.8
2015-Mar-21 09:00N 25°44' W 042°10'1 2.3 21.8
2015-Mar-21 08:36N 25°44' W 042°10'0 0.3 21.8
2015-Mar-21 06:54N 25°44' W 042°10'0 0.2 21.8
2015-Mar-21 06:07N 25°44' W 042°10'120.4 21.8
2015-Mar-21 06:04N 25°43' W 042°10'0 0.1 21.8
2015-Mar-21 01:45N 25°43' W 042°10'0 0.0 21.8
2015-Mar-21 01:00N 25°43' W 042°10'2 1.8 21.9
2015-Mar-21 00:09N 25°41' W 042°11'1 1.0 21.9
2015-Mar-20 23:15N 25°41' W 042°11'0 0.0 21.9
2015-Mar-20 23:10N 25°41' W 042°11'1 0.3
2015-Mar-20 19:45N 25°40' W 042°11'0 0.0 22.0
2015-Mar-20 19:01N 25°40' W 042°11'0 1.2 21.9
2015-Mar-20 18:58N 25°40' W 042°11'2 0.6 21.9
2015-Mar-20 16:00N 25°39' W 042°10'1 6.2 22.0
2015-Mar-20 15:54N 25°39' W 042°10'1 0.4 21.9
2015-Mar-20 12:51N 25°39' W 042°09'0 0.0 21.8
2015-Mar-20 12:03N 25°39' W 042°09'0 1.6 21.7
2015-Mar-20 12:00N 25°39' W 042°09'0 3.6 21.7
2015-Mar-20 11:54N 25°39' W 042°09'0 0.1
2015-Mar-20 09:18N 25°39' W 042°09'0 4.8 21.7
2015-Mar-20 09:12N 25°38' W 042°09'0 0.0 21.7
2015-Mar-20 07:57N 25°38' W 042°09'0 0.2 21.7
2015-Mar-20 06:19N 25°38' W 042°08'1 9.3 21.7
2015-Mar-20 06:15N 25°38' W 042°08'3 0.4 21.7
2015-Mar-19 20:51N 25°35' W 042°09'0 0.0 22.0
2015-Mar-19 20:15N 25°35' W 042°09'1 6.9 22.0
2015-Mar-19 20:09N 25°35' W 042°09'2 0.9 22.0
2015-Mar-19 17:51N 25°34' W 042°07'1 0.5 22.0
2015-Mar-19 16:09N 25°33' W 042°07'1 7.7 22.0
2015-Mar-19 16:00N 25°32' W 042°06'0 0.0 22.0
2015-Mar-19 14:04N 25°32' W 042°06'1 0.4 21.9
2015-Mar-19 12:16N 25°32' W 042°05'1 0.4 21.8
2015-Mar-19 10:06N 25°32' W 042°04'0 1.3 21.8
2015-Mar-19 10:01N 25°32' W 042°04'0 0.2 21.8
2015-Mar-19 07:48N 25°32' W 042°04'111.4 21.8
2015-Mar-19 07:42N 25°32' W 042°02'0 0.0 21.8
2015-Mar-19 06:46N 25°32' W 042°02'0 1.1 21.8
2015-Mar-19 06:31N 25°32' W 042°02'0 2.4 21.8
2015-Mar-19 06:22N 25°32' W 042°02'0 0.0 21.8
2015-Mar-19 06:09N 25°32' W 042°02'0 0.0 21.8
2015-Mar-19 04:48N 25°32' W 042°02'1 4.3 21.8
2015-Mar-19 04:39N 25°32' W 042°01'0 0.0
2015-Mar-19 01:40N 25°32' W 042°01'0 0.0 21.8
2015-Mar-19 01:36N 25°32' W 042°01'0 0.1 21.8
2015-Mar-19 00:54N 25°32' W 042°01'1 1.0 21.8
2015-Mar-19 00:01N 25°31' W 042°01'0 0.0 21.8
2015-Mar-18 23:54N 25°31' W 042°01'0 0.0 21.8
2015-Mar-18 23:15N 25°31' W 042°01'0 1.9 21.8
2015-Mar-18 23:03N 25°31' W 042°01'0 0.0
2015-Mar-18 22:19N 25°31' W 042°01'0 0.0 21.8
2015-Mar-18 22:16N 25°31' W 042°01'0 0.0 21.8
2015-Mar-18 22:13N 25°31' W 042°01'2 3.1 21.8
2015-Mar-18 21:43N 25°31' W 041°59'0 0.0 21.8
2015-Mar-18 21:01N 25°31' W 041°59'0 0.0 21.8
2015-Mar-18 20:58N 25°31' W 041°59'2 7.7 21.8
2015-Mar-18 20:46N 25°31' W 042°01'210.2 21.8
2015-Mar-18 20:37N 25°31' W 041°59'1 1.6 21.9
2015-Mar-18 20:07N 25°30' W 041°59'0 0.0 21.9
2015-Mar-18 19:24N 25°30' W 041°59'0 0.0 21.9
2015-Mar-18 19:19N 25°30' W 041°59'0 0.5 21.9
2015-Mar-18 18:25N 25°30' W 041°59'0 0.0 21.9
2015-Mar-18 18:01N 25°30' W 041°59'0 0.0 21.9
2015-Mar-18 17:40N 25°30' W 041°59'0 0.1 21.9
2015-Mar-18 16:22N 25°30' W 041°59'1 0.8 21.9
2015-Mar-18 14:39N 25°30' W 041°57'0 0.9 21.8
2015-Mar-18 14:24N 25°30' W 041°57'0 0.1 21.8
2015-Mar-18 13:37N 25°30' W 041°57'0 3.6 21.8
2015-Mar-18 13:30N 25°30' W 041°57'1 0.8 21.8
2015-Mar-18 12:45N 25°30' W 041°56'0 4.5 21.8
2015-Mar-18 12:40N 25°30' W 041°56'0 0.0 21.8
2015-Mar-18 12:36N 25°30' W 041°56'0 0.5 21.8
2015-Mar-18 11:54N 25°30' W 041°56'0 0.0 21.8
2015-Mar-18 11:51N 25°30' W 041°56'0 0.0 21.8
2015-Mar-18 11:04N 25°30' W 041°56'0 3.2 21.8
2015-Mar-18 11:01N 25°29' W 041°56'117.1 21.8
2015-Mar-18 10:58N 25°30' W 041°55'1 1.0 21.8
2015-Mar-18 10:28N 25°30' W 041°55'1 1.4 21.7
2015-Mar-18 10:07N 25°30' W 041°55'   21.7

Dump ship's entire track history